sensor_id;sensor_type;location;lat;lon;timestamp;P1;durP1;ratioP1;P2;durP2;ratioP2
47589;SDS011;33316;52.298;9.056;2023-08-30T00:01:12;0.85;;;0.60;;
47589;SDS011;33316;52.298;9.056;2023-08-30T00:03:39;1.63;;;1.00;;
47589;SDS011;33316;52.298;9.056;2023-08-30T00:06:06;1.55;;;0.90;;
47589;SDS011;33316;52.298;9.056;2023-08-30T00:08:34;0.82;;;0.70;;
47589;SDS011;33316;52.298;9.056;2023-08-30T00:11:03;1.52;;;1.02;;
47589;SDS011;33316;52.298;9.056;2023-08-30T00:13:30;1.20;;;0.90;;
47589;SDS011;33316;52.298;9.056;2023-08-30T00:15:58;1.80;;;1.20;;
47589;SDS011;33316;52.298;9.056;2023-08-30T00:18:26;1.92;;;0.85;;
47589;SDS011;33316;52.298;9.056;2023-08-30T00:20:53;3.78;;;1.13;;
47589;SDS011;33316;52.298;9.056;2023-08-30T00:23:22;1.10;;;0.90;;
47589;SDS011;33316;52.298;9.056;2023-08-30T00:25:49;1.27;;;0.90;;
47589;SDS011;33316;52.298;9.056;2023-08-30T00:28:17;1.13;;;0.93;;
47589;SDS011;33316;52.298;9.056;2023-08-30T00:30:45;1.27;;;1.15;;
47589;SDS011;33316;52.298;9.056;2023-08-30T00:33:12;1.83;;;1.05;;
47589;SDS011;33316;52.298;9.056;2023-08-30T00:35:39;1.67;;;1.23;;
47589;SDS011;33316;52.298;9.056;2023-08-30T00:38:06;1.70;;;0.90;;
47589;SDS011;33316;52.298;9.056;2023-08-30T00:40:37;1.20;;;1.00;;
47589;SDS011;33316;52.298;9.056;2023-08-30T00:43:05;1.35;;;1.08;;
47589;SDS011;33316;52.298;9.056;2023-08-30T00:45:33;1.52;;;1.10;;
47589;SDS011;33316;52.298;9.056;2023-08-30T00:48:04;2.03;;;1.23;;
47589;SDS011;33316;52.298;9.056;2023-08-30T00:50:34;1.60;;;1.10;;
47589;SDS011;33316;52.298;9.056;2023-08-30T00:53:02;2.15;;;1.50;;
47589;SDS011;33316;52.298;9.056;2023-08-30T00:55:32;2.25;;;1.42;;
47589;SDS011;33316;52.298;9.056;2023-08-30T00:58:00;3.28;;;1.60;;
47589;SDS011;33316;52.298;9.056;2023-08-30T01:00:27;2.88;;;1.60;;
47589;SDS011;33316;52.298;9.056;2023-08-30T01:02:56;3.03;;;1.42;;
47589;SDS011;33316;52.298;9.056;2023-08-30T01:05:23;2.63;;;1.48;;
47589;SDS011;33316;52.298;9.056;2023-08-30T01:07:51;3.20;;;1.63;;
47589;SDS011;33316;52.298;9.056;2023-08-30T01:10:21;1.83;;;1.23;;
47589;SDS011;33316;52.298;9.056;2023-08-30T01:12:59;2.25;;;1.40;;
47589;SDS011;33316;52.298;9.056;2023-08-30T01:15:31;2.03;;;1.23;;
47589;SDS011;33316;52.298;9.056;2023-08-30T01:18:02;2.38;;;1.35;;
47589;SDS011;33316;52.298;9.056;2023-08-30T01:20:34;1.58;;;1.40;;
47589;SDS011;33316;52.298;9.056;2023-08-30T01:23:05;2.78;;;1.20;;
47589;SDS011;33316;52.298;9.056;2023-08-30T01:25:40;1.15;;;1.00;;
47589;SDS011;33316;52.298;9.056;2023-08-30T01:28:31;1.80;;;1.15;;
47589;SDS011;33316;52.298;9.056;2023-08-30T01:31:01;1.92;;;1.02;;
47589;SDS011;33316;52.298;9.056;2023-08-30T01:33:30;1.60;;;1.05;;
47589;SDS011;33316;52.298;9.056;2023-08-30T01:36:01;1.98;;;1.00;;
47589;SDS011;33316;52.298;9.056;2023-08-30T01:38:32;1.73;;;0.90;;
47589;SDS011;33316;52.298;9.056;2023-08-30T01:41:01;2.55;;;1.20;;
47589;SDS011;33316;52.298;9.056;2023-08-30T01:43:28;1.73;;;1.40;;
47589;SDS011;33316;52.298;9.056;2023-08-30T01:45:58;1.98;;;1.52;;
47589;SDS011;33316;52.298;9.056;2023-08-30T01:48:29;3.00;;;1.67;;
47589;SDS011;33316;52.298;9.056;2023-08-30T01:51:01;2.75;;;1.30;;
47589;SDS011;33316;52.298;9.056;2023-08-30T01:53:29;2.40;;;1.45;;
47589;SDS011;33316;52.298;9.056;2023-08-30T01:55:57;2.08;;;1.60;;
47589;SDS011;33316;52.298;9.056;2023-08-30T01:58:24;1.60;;;1.30;;
47589;SDS011;33316;52.298;9.056;2023-08-30T02:00:53;1.50;;;1.40;;
47589;SDS011;33316;52.298;9.056;2023-08-30T02:03:22;2.72;;;1.50;;
47589;SDS011;33316;52.298;9.056;2023-08-30T02:05:52;1.88;;;1.42;;
47589;SDS011;33316;52.298;9.056;2023-08-30T02:08:38;1.98;;;1.40;;
47589;SDS011;33316;52.298;9.056;2023-08-30T02:11:12;2.63;;;1.50;;
47589;SDS011;33316;52.298;9.056;2023-08-30T02:13:43;1.85;;;1.50;;
47589;SDS011;33316;52.298;9.056;2023-08-30T02:16:13;1.73;;;1.42;;
47589;SDS011;33316;52.298;9.056;2023-08-30T02:21:10;1.58;;;1.40;;
47589;SDS011;33316;52.298;9.056;2023-08-30T02:23:37;1.77;;;1.25;;
47589;SDS011;33316;52.298;9.056;2023-08-30T02:26:04;3.45;;;1.38;;
47589;SDS011;33316;52.298;9.056;2023-08-30T02:28:31;3.50;;;1.73;;
47589;SDS011;33316;52.298;9.056;2023-08-30T02:30:59;2.08;;;1.55;;
47589;SDS011;33316;52.298;9.056;2023-08-30T02:33:27;2.10;;;1.40;;
47589;SDS011;33316;52.298;9.056;2023-08-30T02:35:54;1.20;;;1.08;;
47589;SDS011;33316;52.298;9.056;2023-08-30T02:38:23;1.67;;;1.23;;
47589;SDS011;33316;52.298;9.056;2023-08-30T02:40:50;1.17;;;1.08;;
47589;SDS011;33316;52.298;9.056;2023-08-30T02:43:17;4.88;;;1.42;;
47589;SDS011;33316;52.298;9.056;2023-08-30T02:45:44;2.45;;;1.23;;
47589;SDS011;33316;52.298;9.056;2023-08-30T02:48:11;2.33;;;1.40;;
47589;SDS011;33316;52.298;9.056;2023-08-30T02:50:39;1.63;;;1.25;;
47589;SDS011;33316;52.298;9.056;2023-08-30T02:53:06;1.70;;;1.50;;
47589;SDS011;33316;52.298;9.056;2023-08-30T02:55:34;2.03;;;1.30;;
47589;SDS011;33316;52.298;9.056;2023-08-30T02:58:01;1.90;;;1.48;;
47589;SDS011;33316;52.298;9.056;2023-08-30T03:00:28;1.35;;;1.15;;
47589;SDS011;33316;52.298;9.056;2023-08-30T03:02:56;2.08;;;1.60;;
47589;SDS011;33316;52.298;9.056;2023-08-30T03:05:23;2.05;;;1.40;;
47589;SDS011;33316;52.298;9.056;2023-08-30T03:07:53;1.90;;;1.30;;
47589;SDS011;33316;52.298;9.056;2023-08-30T03:10:22;1.45;;;1.20;;
47589;SDS011;33316;52.298;9.056;2023-08-30T03:12:50;1.42;;;1.20;;
47589;SDS011;33316;52.298;9.056;2023-08-30T03:15:18;1.67;;;1.25;;
47589;SDS011;33316;52.298;9.056;2023-08-30T03:17:45;1.95;;;1.55;;
47589;SDS011;33316;52.298;9.056;2023-08-30T03:20:14;1.48;;;1.10;;
47589;SDS011;33316;52.298;9.056;2023-08-30T03:22:42;2.67;;;1.50;;
47589;SDS011;33316;52.298;9.056;2023-08-30T03:25:11;1.73;;;1.20;;
47589;SDS011;33316;52.298;9.056;2023-08-30T03:27:38;2.08;;;1.45;;
47589;SDS011;33316;52.298;9.056;2023-08-30T03:30:06;2.00;;;1.73;;
47589;SDS011;33316;52.298;9.056;2023-08-30T03:32:34;2.05;;;1.52;;
47589;SDS011;33316;52.298;9.056;2023-08-30T03:35:03;2.53;;;1.80;;
47589;SDS011;33316;52.298;9.056;2023-08-30T03:37:32;2.20;;;1.50;;
47589;SDS011;33316;52.298;9.056;2023-08-30T03:40:00;1.83;;;1.42;;
47589;SDS011;33316;52.298;9.056;2023-08-30T03:42:31;2.25;;;1.38;;
47589;SDS011;33316;52.298;9.056;2023-08-30T03:44:58;2.63;;;1.60;;
47589;SDS011;33316;52.298;9.056;2023-08-30T03:47:26;2.75;;;1.67;;
47589;SDS011;33316;52.298;9.056;2023-08-30T03:49:52;2.28;;;1.65;;
47589;SDS011;33316;52.298;9.056;2023-08-30T03:52:20;2.58;;;1.73;;
47589;SDS011;33316;52.298;9.056;2023-08-30T03:54:47;1.55;;;1.15;;
47589;SDS011;33316;52.298;9.056;2023-08-30T03:57:14;3.40;;;1.60;;
47589;SDS011;33316;52.298;9.056;2023-08-30T03:59:42;1.67;;;1.30;;
47589;SDS011;33316;52.298;9.056;2023-08-30T04:02:12;1.73;;;1.30;;
47589;SDS011;33316;52.298;9.056;2023-08-30T04:04:39;2.13;;;1.83;;
47589;SDS011;33316;52.298;9.056;2023-08-30T04:07:06;3.90;;;1.90;;
47589;SDS011;33316;52.298;9.056;2023-08-30T04:09:33;2.15;;;1.83;;
47589;SDS011;33316;52.298;9.056;2023-08-30T04:12:03;2.58;;;1.75;;
47589;SDS011;33316;52.298;9.056;2023-08-30T04:14:33;2.95;;;1.85;;
47589;SDS011;33316;52.298;9.056;2023-08-30T04:17:01;2.63;;;1.90;;
47589;SDS011;33316;52.298;9.056;2023-08-30T04:19:29;2.88;;;1.92;;
47589;SDS011;33316;52.298;9.056;2023-08-30T04:21:56;3.25;;;2.40;;
47589;SDS011;33316;52.298;9.056;2023-08-30T04:24:23;2.58;;;1.77;;
47589;SDS011;33316;52.298;9.056;2023-08-30T04:26:50;2.70;;;1.90;;
47589;SDS011;33316;52.298;9.056;2023-08-30T04:29:19;2.47;;;1.90;;
47589;SDS011;33316;52.298;9.056;2023-08-30T04:31:46;3.03;;;1.88;;
47589;SDS011;33316;52.298;9.056;2023-08-30T04:34:15;2.72;;;2.25;;
47589;SDS011;33316;52.298;9.056;2023-08-30T04:36:42;3.25;;;2.03;;
47589;SDS011;33316;52.298;9.056;2023-08-30T04:39:12;3.30;;;2.28;;
47589;SDS011;33316;52.298;9.056;2023-08-30T04:41:40;4.63;;;2.22;;
47589;SDS011;33316;52.298;9.056;2023-08-30T04:44:07;2.45;;;1.90;;
47589;SDS011;33316;52.298;9.056;2023-08-30T04:46:34;2.90;;;2.10;;
47589;SDS011;33316;52.298;9.056;2023-08-30T04:49:01;2.95;;;2.13;;
47589;SDS011;33316;52.298;9.056;2023-08-30T04:51:30;3.10;;;2.42;;
47589;SDS011;33316;52.298;9.056;2023-08-30T04:53:57;3.80;;;2.42;;
47589;SDS011;33316;52.298;9.056;2023-08-30T04:56:24;3.33;;;2.22;;
47589;SDS011;33316;52.298;9.056;2023-08-30T04:58:52;4.13;;;2.83;;
47589;SDS011;33316;52.298;9.056;2023-08-30T05:01:20;3.40;;;2.38;;
47589;SDS011;33316;52.298;9.056;2023-08-30T05:03:50;4.28;;;2.78;;
47589;SDS011;33316;52.298;9.056;2023-08-30T05:06:17;2.15;;;1.95;;
47589;SDS011;33316;52.298;9.056;2023-08-30T05:08:45;3.15;;;2.30;;
47589;SDS011;33316;52.298;9.056;2023-08-30T05:11:12;3.10;;;2.30;;
47589;SDS011;33316;52.298;9.056;2023-08-30T05:13:40;2.92;;;2.20;;
47589;SDS011;33316;52.298;9.056;2023-08-30T05:16:07;2.63;;;2.20;;
47589;SDS011;33316;52.298;9.056;2023-08-30T05:18:34;2.72;;;2.10;;
47589;SDS011;33316;52.298;9.056;2023-08-30T05:21:01;3.17;;;2.58;;
47589;SDS011;33316;52.298;9.056;2023-08-30T05:23:29;2.85;;;2.40;;
47589;SDS011;33316;52.298;9.056;2023-08-30T05:25:58;3.35;;;2.47;;
47589;SDS011;33316;52.298;9.056;2023-08-30T05:28:25;3.90;;;2.65;;
47589;SDS011;33316;52.298;9.056;2023-08-30T05:30:52;2.85;;;2.35;;
47589;SDS011;33316;52.298;9.056;2023-08-30T05:33:49;2.95;;;2.33;;
47589;SDS011;33316;52.298;9.056;2023-08-30T05:36:35;3.33;;;2.25;;
47589;SDS011;33316;52.298;9.056;2023-08-30T05:39:24;3.42;;;2.25;;
47589;SDS011;33316;52.298;9.056;2023-08-30T05:41:56;3.05;;;2.20;;
47589;SDS011;33316;52.298;9.056;2023-08-30T05:44:26;3.42;;;2.78;;
47589;SDS011;33316;52.298;9.056;2023-08-30T05:46:53;3.03;;;2.42;;
47589;SDS011;33316;52.298;9.056;2023-08-30T05:49:20;2.97;;;2.28;;
47589;SDS011;33316;52.298;9.056;2023-08-30T05:51:47;4.75;;;2.08;;
47589;SDS011;33316;52.298;9.056;2023-08-30T05:54:14;3.00;;;2.33;;
47589;SDS011;33316;52.298;9.056;2023-08-30T05:56:42;4.30;;;2.50;;
47589;SDS011;33316;52.298;9.056;2023-08-30T05:59:10;3.28;;;2.60;;
47589;SDS011;33316;52.298;9.056;2023-08-30T06:01:37;4.38;;;3.60;;
47589;SDS011;33316;52.298;9.056;2023-08-30T06:04:04;5.03;;;3.40;;
47589;SDS011;33316;52.298;9.056;2023-08-30T06:06:31;6.78;;;4.18;;
47589;SDS011;33316;52.298;9.056;2023-08-30T06:08:58;5.65;;;3.92;;
47589;SDS011;33316;52.298;9.056;2023-08-30T06:11:25;4.65;;;3.10;;
47589;SDS011;33316;52.298;9.056;2023-08-30T06:13:52;3.63;;;2.80;;
47589;SDS011;33316;52.298;9.056;2023-08-30T06:16:21;5.07;;;3.72;;
47589;SDS011;33316;52.298;9.056;2023-08-30T06:18:48;4.13;;;3.30;;
47589;SDS011;33316;52.298;9.056;2023-08-30T06:21:15;5.45;;;2.83;;
47589;SDS011;33316;52.298;9.056;2023-08-30T06:23:42;3.67;;;3.00;;
47589;SDS011;33316;52.298;9.056;2023-08-30T06:26:11;4.78;;;3.60;;
47589;SDS011;33316;52.298;9.056;2023-08-30T06:28:38;3.38;;;2.92;;
47589;SDS011;33316;52.298;9.056;2023-08-30T06:31:05;4.28;;;3.22;;
47589;SDS011;33316;52.298;9.056;2023-08-30T06:33:34;4.22;;;2.90;;
47589;SDS011;33316;52.298;9.056;2023-08-30T06:36:03;3.83;;;2.70;;
47589;SDS011;33316;52.298;9.056;2023-08-30T06:38:30;4.93;;;3.63;;
47589;SDS011;33316;52.298;9.056;2023-08-30T06:40:57;4.70;;;3.83;;
47589;SDS011;33316;52.298;9.056;2023-08-30T06:43:24;5.07;;;3.90;;
47589;SDS011;33316;52.298;9.056;2023-08-30T06:45:51;4.93;;;3.83;;
47589;SDS011;33316;52.298;9.056;2023-08-30T06:48:19;4.53;;;3.20;;
47589;SDS011;33316;52.298;9.056;2023-08-30T06:50:47;5.18;;;3.85;;
47589;SDS011;33316;52.298;9.056;2023-08-30T06:53:14;5.18;;;4.03;;
47589;SDS011;33316;52.298;9.056;2023-08-30T06:55:41;6.38;;;4.57;;
47589;SDS011;33316;52.298;9.056;2023-08-30T06:58:08;5.97;;;4.38;;
47589;SDS011;33316;52.298;9.056;2023-08-30T07:00:35;4.53;;;3.72;;
47589;SDS011;33316;52.298;9.056;2023-08-30T07:03:02;4.93;;;3.72;;
47589;SDS011;33316;52.298;9.056;2023-08-30T07:05:30;5.82;;;4.40;;
47589;SDS011;33316;52.298;9.056;2023-08-30T07:07:58;6.60;;;4.20;;
47589;SDS011;33316;52.298;9.056;2023-08-30T07:10:25;6.10;;;4.18;;
47589;SDS011;33316;52.298;9.056;2023-08-30T07:12:53;7.03;;;5.22;;
47589;SDS011;33316;52.298;9.056;2023-08-30T07:15:20;7.30;;;4.80;;
47589;SDS011;33316;52.298;9.056;2023-08-30T07:17:47;6.72;;;4.35;;
47589;SDS011;33316;52.298;9.056;2023-08-30T07:20:14;5.55;;;4.45;;
47589;SDS011;33316;52.298;9.056;2023-08-30T07:22:41;7.68;;;5.30;;
47589;SDS011;33316;52.298;9.056;2023-08-30T07:25:09;8.48;;;6.38;;
47589;SDS011;33316;52.298;9.056;2023-08-30T07:27:38;6.85;;;4.75;;
47589;SDS011;33316;52.298;9.056;2023-08-30T07:30:05;5.00;;;3.90;;
47589;SDS011;33316;52.298;9.056;2023-08-30T07:32:33;5.25;;;3.97;;
47589;SDS011;33316;52.298;9.056;2023-08-30T07:35:01;6.15;;;4.80;;
47589;SDS011;33316;52.298;9.056;2023-08-30T07:37:28;5.90;;;4.57;;
47589;SDS011;33316;52.298;9.056;2023-08-30T07:39:55;4.60;;;3.47;;
47589;SDS011;33316;52.298;9.056;2023-08-30T07:42:24;4.97;;;3.42;;
47589;SDS011;33316;52.298;9.056;2023-08-30T07:44:51;5.70;;;4.25;;
47589;SDS011;33316;52.298;9.056;2023-08-30T07:47:18;4.88;;;3.60;;
47589;SDS011;33316;52.298;9.056;2023-08-30T07:49:47;5.40;;;4.20;;
47589;SDS011;33316;52.298;9.056;2023-08-30T07:52:14;5.30;;;3.58;;
47589;SDS011;33316;52.298;9.056;2023-08-30T07:54:41;7.05;;;5.32;;
47589;SDS011;33316;52.298;9.056;2023-08-30T07:57:08;6.80;;;4.40;;
47589;SDS011;33316;52.298;9.056;2023-08-30T07:59:37;4.30;;;3.53;;
47589;SDS011;33316;52.298;9.056;2023-08-30T08:02:04;4.57;;;3.78;;
47589;SDS011;33316;52.298;9.056;2023-08-30T08:04:33;5.20;;;4.22;;
47589;SDS011;33316;52.298;9.056;2023-08-30T08:07:00;9.27;;;5.82;;
47589;SDS011;33316;52.298;9.056;2023-08-30T08:09:28;7.35;;;4.65;;
47589;SDS011;33316;52.298;9.056;2023-08-30T08:11:55;6.45;;;4.07;;
47589;SDS011;33316;52.298;9.056;2023-08-30T08:14:22;7.28;;;5.03;;
47589;SDS011;33316;52.298;9.056;2023-08-30T08:16:51;7.43;;;4.65;;
47589;SDS011;33316;52.298;9.056;2023-08-30T08:19:18;6.32;;;5.13;;
47589;SDS011;33316;52.298;9.056;2023-08-30T08:21:46;7.13;;;4.47;;
47589;SDS011;33316;52.298;9.056;2023-08-30T08:24:14;6.53;;;4.28;;
47589;SDS011;33316;52.298;9.056;2023-08-30T08:26:41;7.32;;;4.32;;
47589;SDS011;33316;52.298;9.056;2023-08-30T08:29:08;8.80;;;4.55;;
47589;SDS011;33316;52.298;9.056;2023-08-30T08:31:35;7.68;;;4.75;;
47589;SDS011;33316;52.298;9.056;2023-08-30T08:34:08;6.35;;;3.85;;
47589;SDS011;33316;52.298;9.056;2023-08-30T08:36:36;8.18;;;5.00;;
47589;SDS011;33316;52.298;9.056;2023-08-30T08:39:04;8.05;;;6.07;;
47589;SDS011;33316;52.298;9.056;2023-08-30T08:41:34;6.70;;;4.75;;
47589;SDS011;33316;52.298;9.056;2023-08-30T08:44:04;7.85;;;5.30;;
47589;SDS011;33316;52.298;9.056;2023-08-30T08:46:32;7.38;;;5.40;;
47589;SDS011;33316;52.298;9.056;2023-08-30T08:49:02;8.10;;;6.30;;
47589;SDS011;33316;52.298;9.056;2023-08-30T08:51:35;6.50;;;4.70;;
47589;SDS011;33316;52.298;9.056;2023-08-30T08:54:03;9.32;;;5.13;;
47589;SDS011;33316;52.298;9.056;2023-08-30T08:56:31;8.50;;;5.53;;
47589;SDS011;33316;52.298;9.056;2023-08-30T08:58:59;7.22;;;4.97;;
47589;SDS011;33316;52.298;9.056;2023-08-30T09:01:26;5.85;;;4.50;;
47589;SDS011;33316;52.298;9.056;2023-08-30T09:03:54;8.75;;;6.43;;
47589;SDS011;33316;52.298;9.056;2023-08-30T09:06:22;7.78;;;4.93;;
47589;SDS011;33316;52.298;9.056;2023-08-30T09:08:50;7.03;;;5.18;;
47589;SDS011;33316;52.298;9.056;2023-08-30T09:11:17;7.20;;;5.10;;
47589;SDS011;33316;52.298;9.056;2023-08-30T09:13:44;11.00;;;7.45;;
47589;SDS011;33316;52.298;9.056;2023-08-30T09:16:12;10.07;;;6.47;;
47589;SDS011;33316;52.298;9.056;2023-08-30T09:18:40;10.68;;;6.78;;
47589;SDS011;33316;52.298;9.056;2023-08-30T09:21:08;9.35;;;7.00;;
47589;SDS011;33316;52.298;9.056;2023-08-30T09:23:36;8.43;;;6.25;;
47589;SDS011;33316;52.298;9.056;2023-08-30T09:26:04;7.10;;;4.82;;
47589;SDS011;33316;52.298;9.056;2023-08-30T09:28:31;9.98;;;5.47;;
47589;SDS011;33316;52.298;9.056;2023-08-30T09:31:07;8.13;;;5.68;;
47589;SDS011;33316;52.298;9.056;2023-08-30T09:33:44;6.10;;;4.55;;
47589;SDS011;33316;52.298;9.056;2023-08-30T09:36:13;7.17;;;4.27;;
47589;SDS011;33316;52.298;9.056;2023-08-30T09:38:47;7.45;;;4.82;;
47589;SDS011;33316;52.298;9.056;2023-08-30T09:41:15;8.02;;;5.53;;
47589;SDS011;33316;52.298;9.056;2023-08-30T09:43:43;7.70;;;4.70;;
47589;SDS011;33316;52.298;9.056;2023-08-30T09:46:11;5.00;;;3.40;;
47589;SDS011;33316;52.298;9.056;2023-08-30T09:48:38;7.82;;;5.05;;
47589;SDS011;33316;52.298;9.056;2023-08-30T09:51:07;4.57;;;3.25;;
47589;SDS011;33316;52.298;9.056;2023-08-30T09:53:37;7.88;;;4.28;;
47589;SDS011;33316;52.298;9.056;2023-08-30T09:56:12;6.05;;;3.83;;
47589;SDS011;33316;52.298;9.056;2023-08-30T09:58:40;5.68;;;3.83;;
47589;SDS011;33316;52.298;9.056;2023-08-30T10:01:09;6.90;;;4.13;;
47589;SDS011;33316;52.298;9.056;2023-08-30T10:03:53;3.85;;;3.05;;
47589;SDS011;33316;52.298;9.056;2023-08-30T10:06:26;5.15;;;3.67;;
47589;SDS011;33316;52.298;9.056;2023-08-30T10:08:56;3.35;;;2.75;;
47589;SDS011;33316;52.298;9.056;2023-08-30T10:11:26;4.50;;;3.58;;
47589;SDS011;33316;52.298;9.056;2023-08-30T10:13:55;5.78;;;3.38;;
47589;SDS011;33316;52.298;9.056;2023-08-30T10:16:22;5.28;;;3.33;;
47589;SDS011;33316;52.298;9.056;2023-08-30T10:18:54;4.07;;;3.42;;
47589;SDS011;33316;52.298;9.056;2023-08-30T10:21:27;3.60;;;2.40;;
47589;SDS011;33316;52.298;9.056;2023-08-30T10:23:56;3.13;;;2.30;;
47589;SDS011;33316;52.298;9.056;2023-08-30T10:26:26;3.88;;;2.42;;
47589;SDS011;33316;52.298;9.056;2023-08-30T10:28:57;5.03;;;2.83;;
47589;SDS011;33316;52.298;9.056;2023-08-30T10:31:26;3.17;;;2.30;;
47589;SDS011;33316;52.298;9.056;2023-08-30T10:33:54;2.83;;;2.38;;
47589;SDS011;33316;52.298;9.056;2023-08-30T10:36:22;3.83;;;2.65;;
47589;SDS011;33316;52.298;9.056;2023-08-30T10:38:50;5.13;;;3.30;;
47589;SDS011;33316;52.298;9.056;2023-08-30T10:41:22;4.10;;;2.55;;
47589;SDS011;33316;52.298;9.056;2023-08-30T10:43:50;4.43;;;2.95;;
47589;SDS011;33316;52.298;9.056;2023-08-30T10:46:28;5.40;;;3.30;;
47589;SDS011;33316;52.298;9.056;2023-08-30T10:48:56;4.80;;;2.55;;
47589;SDS011;33316;52.298;9.056;2023-08-30T10:51:36;6.28;;;2.80;;
47589;SDS011;33316;52.298;9.056;2023-08-30T10:54:11;5.22;;;2.30;;
47589;SDS011;33316;52.298;9.056;2023-08-30T10:56:47;3.72;;;2.45;;
47589;SDS011;33316;52.298;9.056;2023-08-30T10:59:18;4.75;;;2.15;;
47589;SDS011;33316;52.298;9.056;2023-08-30T11:01:46;3.92;;;2.60;;
47589;SDS011;33316;52.298;9.056;2023-08-30T11:04:16;3.15;;;1.95;;
47589;SDS011;33316;52.298;9.056;2023-08-30T11:06:44;2.90;;;1.70;;
47589;SDS011;33316;52.298;9.056;2023-08-30T11:09:13;4.10;;;1.85;;
47589;SDS011;33316;52.298;9.056;2023-08-30T11:11:43;4.10;;;2.10;;
47589;SDS011;33316;52.298;9.056;2023-08-30T11:14:15;2.17;;;1.30;;
47589;SDS011;33316;52.298;9.056;2023-08-30T11:16:43;1.80;;;1.15;;
47589;SDS011;33316;52.298;9.056;2023-08-30T11:19:10;1.88;;;1.20;;
47589;SDS011;33316;52.298;9.056;2023-08-30T11:21:38;2.25;;;1.15;;
47589;SDS011;33316;52.298;9.056;2023-08-30T11:24:07;2.40;;;1.52;;
47589;SDS011;33316;52.298;9.056;2023-08-30T11:26:37;2.15;;;1.42;;
47589;SDS011;33316;52.298;9.056;2023-08-30T11:29:06;2.20;;;1.10;;
47589;SDS011;33316;52.298;9.056;2023-08-30T11:31:34;1.85;;;1.08;;
47589;SDS011;33316;52.298;9.056;2023-08-30T11:34:01;2.50;;;1.20;;
47589;SDS011;33316;52.298;9.056;2023-08-30T11:36:29;2.88;;;1.42;;
47589;SDS011;33316;52.298;9.056;2023-08-30T11:38:58;2.00;;;1.23;;
47589;SDS011;33316;52.298;9.056;2023-08-30T11:41:25;1.10;;;0.93;;
47589;SDS011;33316;52.298;9.056;2023-08-30T11:43:52;2.40;;;1.48;;
47589;SDS011;33316;52.298;9.056;2023-08-30T11:46:21;2.63;;;1.27;;
47589;SDS011;33316;52.298;9.056;2023-08-30T11:48:49;2.10;;;1.27;;
47589;SDS011;33316;52.298;9.056;2023-08-30T11:51:18;2.20;;;1.58;;
47589;SDS011;33316;52.298;9.056;2023-08-30T11:53:46;2.90;;;1.73;;
47589;SDS011;33316;52.298;9.056;2023-08-30T11:56:14;2.38;;;1.40;;
47589;SDS011;33316;52.298;9.056;2023-08-30T11:58:43;2.25;;;1.48;;
47589;SDS011;33316;52.298;9.056;2023-08-30T12:01:11;3.65;;;1.73;;
47589;SDS011;33316;52.298;9.056;2023-08-30T12:03:40;2.97;;;1.58;;
47589;SDS011;33316;52.298;9.056;2023-08-30T12:06:11;2.08;;;1.13;;
47589;SDS011;33316;52.298;9.056;2023-08-30T12:08:41;2.30;;;1.30;;
47589;SDS011;33316;52.298;9.056;2023-08-30T12:11:16;1.88;;;1.10;;
47589;SDS011;33316;52.298;9.056;2023-08-30T12:13:50;2.53;;;1.17;;
47589;SDS011;33316;52.298;9.056;2023-08-30T12:16:17;2.50;;;1.00;;
47589;SDS011;33316;52.298;9.056;2023-08-30T12:18:47;1.70;;;1.08;;
47589;SDS011;33316;52.298;9.056;2023-08-30T12:21:15;2.08;;;1.10;;
47589;SDS011;33316;52.298;9.056;2023-08-30T12:23:42;1.98;;;0.98;;
47589;SDS011;33316;52.298;9.056;2023-08-30T12:26:09;2.58;;;1.40;;
47589;SDS011;33316;52.298;9.056;2023-08-30T12:28:38;2.22;;;1.13;;
47589;SDS011;33316;52.298;9.056;2023-08-30T12:31:06;2.20;;;1.30;;
47589;SDS011;33316;52.298;9.056;2023-08-30T12:33:33;2.13;;;1.10;;
47589;SDS011;33316;52.298;9.056;2023-08-30T12:36:02;2.08;;;1.35;;
47589;SDS011;33316;52.298;9.056;2023-08-30T12:38:30;1.38;;;0.88;;
47589;SDS011;33316;52.298;9.056;2023-08-30T12:40:57;2.78;;;1.08;;
47589;SDS011;33316;52.298;9.056;2023-08-30T12:43:24;2.35;;;1.40;;
47589;SDS011;33316;52.298;9.056;2023-08-30T12:45:51;1.13;;;0.90;;
47589;SDS011;33316;52.298;9.056;2023-08-30T12:48:18;1.65;;;1.00;;
47589;SDS011;33316;52.298;9.056;2023-08-30T12:50:46;3.05;;;1.25;;
47589;SDS011;33316;52.298;9.056;2023-08-30T12:53:15;1.48;;;0.85;;
47589;SDS011;33316;52.298;9.056;2023-08-30T12:55:43;2.63;;;1.10;;
47589;SDS011;33316;52.298;9.056;2023-08-30T12:58:10;2.28;;;1.15;;
47589;SDS011;33316;52.298;9.056;2023-08-30T13:00:39;1.52;;;0.93;;
47589;SDS011;33316;52.298;9.056;2023-08-30T13:03:06;3.42;;;1.75;;
47589;SDS011;33316;52.298;9.056;2023-08-30T13:05:33;2.78;;;1.75;;
47589;SDS011;33316;52.298;9.056;2023-08-30T13:08:01;3.90;;;1.85;;
47589;SDS011;33316;52.298;9.056;2023-08-30T13:10:31;2.22;;;1.10;;
47589;SDS011;33316;52.298;9.056;2023-08-30T13:12:58;2.50;;;1.80;;
47589;SDS011;33316;52.298;9.056;2023-08-30T13:15:25;1.80;;;1.10;;
47589;SDS011;33316;52.298;9.056;2023-08-30T13:17:52;2.35;;;1.10;;
47589;SDS011;33316;52.298;9.056;2023-08-30T13:20:19;1.45;;;1.00;;
47589;SDS011;33316;52.298;9.056;2023-08-30T13:22:46;3.70;;;1.17;;
47589;SDS011;33316;52.298;9.056;2023-08-30T13:25:13;1.92;;;0.98;;
47589;SDS011;33316;52.298;9.056;2023-08-30T13:27:43;2.50;;;1.30;;
47589;SDS011;33316;52.298;9.056;2023-08-30T13:30:10;1.50;;;0.80;;
47589;SDS011;33316;52.298;9.056;2023-08-30T13:32:37;2.00;;;1.17;;
47589;SDS011;33316;52.298;9.056;2023-08-30T13:35:04;1.85;;;1.17;;
47589;SDS011;33316;52.298;9.056;2023-08-30T13:37:32;1.40;;;1.00;;
47589;SDS011;33316;52.298;9.056;2023-08-30T13:39:59;1.38;;;1.08;;
47589;SDS011;33316;52.298;9.056;2023-08-30T13:42:26;1.13;;;0.80;;
47589;SDS011;33316;52.298;9.056;2023-08-30T13:44:54;1.00;;;0.80;;
47589;SDS011;33316;52.298;9.056;2023-08-30T13:47:21;2.05;;;0.95;;
47589;SDS011;33316;52.298;9.056;2023-08-30T13:49:48;2.42;;;0.93;;
47589;SDS011;33316;52.298;9.056;2023-08-30T13:52:15;1.42;;;1.00;;
47589;SDS011;33316;52.298;9.056;2023-08-30T13:54:43;1.60;;;1.10;;
47589;SDS011;33316;52.298;9.056;2023-08-30T13:57:11;1.58;;;1.23;;
47589;SDS011;33316;52.298;9.056;2023-08-30T13:59:38;1.88;;;1.23;;
47589;SDS011;33316;52.298;9.056;2023-08-30T14:02:07;2.53;;;1.33;;
47589;SDS011;33316;52.298;9.056;2023-08-30T14:04:34;1.10;;;0.90;;
47589;SDS011;33316;52.298;9.056;2023-08-30T14:07:02;1.30;;;0.75;;
47589;SDS011;33316;52.298;9.056;2023-08-30T14:09:30;2.33;;;1.38;;
47589;SDS011;33316;52.298;9.056;2023-08-30T14:11:57;1.38;;;1.20;;
47589;SDS011;33316;52.298;9.056;2023-08-30T14:14:24;1.25;;;1.00;;
47589;SDS011;33316;52.298;9.056;2023-08-30T14:16:51;2.92;;;1.00;;
47589;SDS011;33316;52.298;9.056;2023-08-30T14:19:20;1.92;;;1.13;;
47589;SDS011;33316;52.298;9.056;2023-08-30T14:21:47;2.08;;;1.23;;
47589;SDS011;33316;52.298;9.056;2023-08-30T14:24:14;3.45;;;1.58;;
47589;SDS011;33316;52.298;9.056;2023-08-30T14:26:41;2.33;;;1.73;;
47589;SDS011;33316;52.298;9.056;2023-08-30T14:29:08;2.80;;;1.73;;
47589;SDS011;33316;52.298;9.056;2023-08-30T14:31:35;3.15;;;1.27;;
47589;SDS011;33316;52.298;9.056;2023-08-30T14:34:02;2.35;;;1.55;;
47589;SDS011;33316;52.298;9.056;2023-08-30T14:36:30;1.77;;;1.27;;
47589;SDS011;33316;52.298;9.056;2023-08-30T14:38:57;2.88;;;1.35;;
47589;SDS011;33316;52.298;9.056;2023-08-30T14:41:24;4.03;;;1.92;;
47589;SDS011;33316;52.298;9.056;2023-08-30T14:43:52;2.40;;;1.83;;
47589;SDS011;33316;52.298;9.056;2023-08-30T14:46:19;4.60;;;2.28;;
47589;SDS011;33316;52.298;9.056;2023-08-30T14:48:46;2.53;;;2.05;;
47589;SDS011;33316;52.298;9.056;2023-08-30T14:51:13;3.03;;;2.25;;
47589;SDS011;33316;52.298;9.056;2023-08-30T14:53:42;4.10;;;2.75;;
47589;SDS011;33316;52.298;9.056;2023-08-30T14:56:09;3.35;;;2.58;;
47589;SDS011;33316;52.298;9.056;2023-08-30T14:58:37;3.17;;;1.92;;